Time;durP1;ratioP1;P1;durP2;ratioP2;P2;SDS_P1;SDS_P2;PMS_P1;PMS_P2;Temp;Humidity;BMP_temperature;BMP_pressure;BME280_temperature;BME280_humidity;BME280_pressure;Samples;Min_cycle;Max_cycle;Signal;HPM_P1;HPM_P2
2022/10/18 00:00:38;;;;;;;10.40;5.50;;;15.10;99.90;;;;;;5033991;28;20171;-61
2022/10/18 00:03:03;;;;;;;8.60;5.90;;;15.10;99.90;;;;;;5033655;28;20253;-61
2022/10/18 00:05:29;;;;;;;8.43;6.03;;;15.10;99.90;;;;;;5033897;28;20178;-61
2022/10/18 00:07:55;;;;;;;9.25;5.82;;;15.10;99.90;;;;;;5033710;28;20536;-61
2022/10/18 00:10:23;;;;;;;10.95;5.65;;;15.10;99.90;;;;;;5034050;28;20167;-61
2022/10/18 00:12:48;;;;;;;11.73;6.28;;;15.10;99.90;;;;;;5033597;28;20187;-62
2022/10/18 00:15:14;;;;;;;8.25;5.93;;;15.10;99.90;;;;;;5033665;28;20294;-61
2022/10/18 00:17:40;;;;;;;11.70;7.30;;;15.10;99.90;;;;;;5033489;28;20333;-62
2022/10/18 00:20:06;;;;;;;10.25;6.13;;;15.10;99.90;;;;;;5033611;28;20616;-62
2022/10/18 00:22:34;;;;;;;7.90;6.18;;;15.00;99.90;;;;;;5032169;28;20676;-62
2022/10/18 00:25:00;;;;;;;9.73;5.78;;;15.00;99.90;;;;;;5033818;28;20167;-61
2022/10/18 00:27:29;;;;;;;8.65;6.15;;;15.00;99.90;;;;;;5033600;28;20194;-61
2022/10/18 00:29:54;;;;;;;8.18;5.78;;;15.00;99.90;;;;;;5034341;28;20563;-61
2022/10/18 00:32:20;;;;;;;10.85;6.05;;;15.00;99.90;;;;;;5033685;28;20254;-61
2022/10/18 00:34:46;;;;;;;8.35;5.68;;;15.00;99.90;;;;;;5033337;28;20156;-61
2022/10/18 00:37:12;;;;;;;8.30;6.07;;;15.00;99.90;;;;;;5032202;28;20609;-61
2022/10/18 00:39:38;;;;;;;10.13;7.20;;;15.00;99.90;;;;;;5033334;28;20664;-61
2022/10/18 00:42:03;;;;;;;9.18;6.60;;;15.00;99.90;;;;;;5033352;28;20175;-61
2022/10/18 00:44:29;;;;;;;10.77;6.53;;;15.00;99.90;;;;;;5033224;28;20202;-61
2022/10/18 00:47:01;;;;;;;9.32;6.95;;;15.00;99.90;;;;;;5033273;28;20590;-62
2022/10/18 00:49:42;;;;;;;10.63;6.60;;;15.10;99.90;;;;;;5033377;28;20194;-61
2022/10/18 00:52:22;;;;;;;9.80;7.03;;;15.00;99.90;;;;;;5033325;28;20563;-61
2022/10/18 00:54:50;;;;;;;11.57;6.90;;;15.00;99.90;;;;;;5033360;28;20159;-61
2022/10/18 00:57:17;;;;;;;10.63;7.53;;;15.00;99.90;;;;;;5033287;28;20214;-61
2022/10/18 00:59:43;;;;;;;10.98;7.38;;;15.00;99.90;;;;;;5033213;28;20663;-61
2022/10/18 01:02:09;;;;;;;13.25;7.80;;;15.00;99.90;;;;;;5035213;28;20176;-61
2022/10/18 01:04:35;;;;;;;13.18;8.65;;;15.00;99.90;;;;;;5037152;28;20254;-61
2022/10/18 01:07:16;;;;;;;11.45;7.45;;;15.00;99.90;;;;;;5035770;28;20262;-61
2022/10/18 01:10:00;;;;;;;12.45;8.18;;;15.00;99.90;;;;;;5037389;28;20186;-61
2022/10/18 01:13:09;;;;;;;11.20;8.20;;;15.00;99.90;;;;;;5035728;28;20178;-61
2022/10/18 01:15:53;;;;;;;13.00;8.82;;;15.00;99.90;;;;;;5037185;28;20160;-61
2022/10/18 01:18:46;;;;;;;12.45;8.38;;;15.00;99.90;;;;;;5036670;28;20210;-61
2022/10/18 01:21:20;;;;;;;12.80;7.72;;;14.90;99.90;;;;;;5035417;28;20199;-61
2022/10/18 01:23:54;;;;;;;11.75;7.88;;;14.90;99.90;;;;;;5036714;28;20274;-61
2022/10/18 01:26:44;;;;;;;11.95;8.02;;;14.90;99.90;;;;;;5035444;28;20202;-61
2022/10/18 01:29:21;;;;;;;18.33;8.25;;;14.80;99.90;;;;;;5035270;28;20190;-61
2022/10/18 01:31:52;;;;;;;15.05;7.05;;;14.80;99.90;;;;;;5036901;28;20235;-61
2022/10/18 01:34:19;;;;;;;10.70;7.65;;;14.80;99.90;;;;;;5036771;28;20576;-62
2022/10/18 01:36:52;;;;;;;12.32;7.72;;;14.80;99.90;;;;;;5036292;28;20277;-60
2022/10/18 01:39:34;;;;;;;12.48;7.93;;;14.80;99.90;;;;;;5036573;28;20189;-61
2022/10/18 01:42:04;;;;;;;11.88;7.90;;;14.80;99.90;;;;;;5036396;28;20186;-61
2022/10/18 01:44:33;;;;;;;13.02;8.30;;;14.80;99.90;;;;;;5036320;28;20195;-61
2022/10/18 01:46:59;;;;;;;11.20;8.10;;;14.80;99.90;;;;;;5036773;28;20179;-61
2022/10/18 01:49:25;;;;;;;12.77;8.38;;;14.80;99.90;;;;;;5036486;28;20590;-65
2022/10/18 01:51:52;;;;;;;9.90;7.40;;;14.80;99.90;;;;;;5036261;28;20724;-61
2022/10/18 01:54:23;;;;;;;10.95;7.20;;;14.80;99.90;;;;;;5036097;28;20195;-61
2022/10/18 01:57:13;;;;;;;12.57;7.60;;;14.80;99.90;;;;;;5036124;28;20188;-61
2022/10/18 01:59:55;;;;;;;14.38;7.78;;;14.90;99.90;;;;;;5036061;28;20629;-61
2022/10/18 02:02:38;;;;;;;11.73;7.65;;;14.90;99.90;;;;;;5035917;28;20195;-62
2022/10/18 02:05:18;;;;;;;10.95;7.30;;;14.80;99.90;;;;;;5035856;28;20170;-61
2022/10/18 02:08:11;;;;;;;15.23;8.90;;;14.90;99.90;;;;;;5034679;28;20640;-61
2022/10/18 02:10:41;;;;;;;13.07;8.90;;;14.90;99.90;;;;;;5035966;28;20168;-61
2022/10/18 02:13:10;;;;;;;11.77;8.98;;;14.80;99.90;;;;;;5034340;28;20286;-61
2022/10/18 02:15:40;;;;;;;11.30;8.50;;;14.90;99.90;;;;;;5036084;28;20640;-61
2022/10/18 02:18:11;;;;;;;12.13;7.80;;;14.90;99.90;;;;;;5036218;28;20570;-61
2022/10/18 02:20:38;;;;;;;10.98;8.05;;;14.90;99.90;;;;;;5035710;28;20254;-61
2022/10/18 02:23:07;;;;;;;12.43;8.43;;;14.90;99.90;;;;;;5034271;28;20264;-61
2022/10/18 02:25:34;;;;;;;11.95;8.50;;;14.90;99.90;;;;;;5035622;28;20167;-61
2022/10/18 02:28:01;;;;;;;13.23;8.60;;;14.90;99.90;;;;;;5035575;28;20281;-61
2022/10/18 02:30:46;;;;;;;11.07;7.93;;;14.90;99.90;;;;;;5035479;28;20554;-61
2022/10/18 02:33:33;;;;;;;11.60;8.52;;;14.90;99.90;;;;;;5035706;28;20191;-61
2022/10/18 02:36:06;;;;;;;13.50;9.38;;;14.80;99.90;;;;;;5035384;28;20184;-61
2022/10/18 02:38:32;;;;;;;14.60;8.85;;;14.80;99.90;;;;;;5035334;28;20191;-61
2022/10/18 02:40:58;;;;;;;13.55;8.50;;;14.80;99.90;;;;;;5035386;28;20249;-61
2022/10/18 02:43:24;;;;;;;11.95;9.43;;;14.80;99.90;;;;;;5033952;28;20195;-61
2022/10/18 02:45:50;;;;;;;12.52;9.32;;;14.80;99.90;;;;;;5034189;28;20269;-61
2022/10/18 02:48:16;;;;;;;13.95;9.52;;;14.80;99.90;;;;;;5035254;28;20216;-61
2022/10/18 02:50:42;;;;;;;15.13;10.18;;;14.80;99.90;;;;;;5035030;28;20174;-61
2022/10/18 02:53:07;;;;;;;15.88;9.90;;;14.80;99.90;;;;;;5035046;28;20210;-61
2022/10/18 02:55:33;;;;;;;13.60;9.18;;;14.70;99.90;;;;;;5034996;28;20581;-62
2022/10/18 02:57:59;;;;;;;11.85;9.32;;;14.70;99.90;;;;;;5035494;28;20317;-61
2022/10/18 03:00:24;;;;;;;22.83;9.93;;;14.70;99.90;;;;;;5033686;28;20175;-61
2022/10/18 03:02:51;;;;;;;12.20;9.38;;;14.70;99.90;;;;;;5034878;28;20528;-62
2022/10/18 03:05:17;;;;;;;15.32;10.18;;;14.80;99.90;;;;;;5035074;28;20171;-61
2022/10/18 03:07:43;;;;;;;16.40;10.25;;;14.70;99.90;;;;;;5035036;28;20179;-61
2022/10/18 03:10:08;;;;;;;13.70;9.55;;;14.70;99.90;;;;;;5035099;28;20207;-61
2022/10/18 03:12:34;;;;;;;16.13;9.45;;;14.70;99.90;;;;;;5034693;28;20207;-61
2022/10/18 03:15:00;;;;;;;14.43;10.15;;;14.70;99.90;;;;;;5034827;28;20175;-61
2022/10/18 03:17:25;;;;;;;12.13;8.30;;;14.60;99.90;;;;;;5034507;28;20687;-62
2022/10/18 03:19:51;;;;;;;12.07;8.00;;;14.60;99.90;;;;;;5034709;28;20175;-62
2022/10/18 03:22:17;;;;;;;13.32;8.05;;;14.60;99.90;;;;;;5034541;28;20179;-61
2022/10/18 03:24:43;;;;;;;12.35;7.97;;;14.60;99.90;;;;;;5033669;28;20171;-61
2022/10/18 03:27:08;;;;;;;11.45;8.23;;;14.60;99.90;;;;;;5034179;28;20171;-62
2022/10/18 03:29:34;;;;;;;11.32;7.72;;;14.60;99.90;;;;;;5034350;28;20213;-61
2022/10/18 03:32:00;;;;;;;10.65;8.02;;;14.50;99.90;;;;;;5034279;28;20535;-61
2022/10/18 03:34:26;;;;;;;10.07;7.43;;;14.60;99.90;;;;;;5034156;28;20202;-61
2022/10/18 03:36:51;;;;;;;10.48;7.63;;;14.60;99.90;;;;;;5034110;28;20198;-61
2022/10/18 03:39:17;;;;;;;10.23;7.90;;;14.60;99.90;;;;;;5032927;28;20179;-61
2022/10/18 03:41:43;;;;;;;9.77;6.72;;;14.60;99.90;;;;;;5034767;28;20270;-61
2022/10/18 03:44:08;;;;;;;10.18;7.90;;;14.60;99.90;;;;;;5034034;28;20201;-61
2022/10/18 03:46:34;;;;;;;11.18;7.70;;;14.60;99.90;;;;;;5034082;28;20170;-61
2022/10/18 03:49:00;;;;;;;9.88;7.35;;;14.60;99.90;;;;;;5033918;28;20652;-61
2022/10/18 03:51:25;;;;;;;12.63;8.15;;;14.60;99.90;;;;;;5033813;28;20206;-61
2022/10/18 03:53:51;;;;;;;10.90;8.10;;;14.60;99.90;;;;;;5033840;28;20533;-61
2022/10/18 03:56:17;;;;;;;12.60;8.43;;;14.60;99.90;;;;;;5034332;28;20171;-62
2022/10/18 03:58:42;;;;;;;10.77;7.60;;;14.50;99.90;;;;;;5033948;28;20175;-62
2022/10/18 04:01:08;;;;;;;10.95;7.60;;;14.50;99.90;;;;;;5033820;28;20256;-61
2022/10/18 04:03:34;;;;;;;15.25;8.43;;;14.50;99.90;;;;;;5033912;28;20209;-61
2022/10/18 04:06:02;;;;;;;13.02;9.30;;;14.50;99.90;;;;;;5033719;28;20198;-62
2022/10/18 04:08:28;;;;;;;12.45;7.57;;;14.40;99.90;;;;;;5033637;28;20171;-62
2022/10/18 04:10:53;;;;;;;10.57;7.35;;;14.40;99.90;;;;;;5033981;28;20174;-62
2022/10/18 04:13:19;;;;;;;12.13;8.60;;;14.50;99.90;;;;;;5032318;28;20206;-62
2022/10/18 04:15:45;;;;;;;10.32;7.43;;;14.50;99.90;;;;;;5032365;28;20643;-62
2022/10/18 04:18:10;;;;;;;11.45;7.97;;;14.50;99.90;;;;;;5033359;28;20671;-62
2022/10/18 04:20:36;;;;;;;10.82;7.90;;;14.50;99.90;;;;;;5033793;28;20207;-62
2022/10/18 04:23:02;;;;;;;11.23;8.23;;;14.50;99.90;;;;;;5033915;28;20644;-62
2022/10/18 04:25:28;;;;;;;12.45;8.98;;;14.50;99.90;;;;;;5033587;28;20234;-62
2022/10/18 04:27:54;;;;;;;14.82;9.15;;;14.60;99.90;;;;;;5033405;28;20194;-62
2022/10/18 04:30:20;;;;;;;18.20;9.10;;;14.50;99.90;;;;;;5033439;28;20175;-62
2022/10/18 04:32:45;;;;;;;11.93;8.30;;;14.50;99.90;;;;;;5032012;28;20740;-62
2022/10/18 04:35:11;;;;;;;11.23;8.20;;;14.50;99.90;;;;;;5033134;28;20183;-62
2022/10/18 04:37:37;;;;;;;10.82;8.23;;;14.50;99.90;;;;;;5033175;28;20286;-62
2022/10/18 04:40:03;;;;;;;13.85;8.63;;;14.60;99.90;;;;;;5033269;28;20167;-62
2022/10/18 04:42:29;;;;;;;12.02;8.27;;;14.60;99.90;;;;;;5032921;28;20595;-62
2022/10/18 04:44:55;;;;;;;12.95;8.73;;;14.60;99.90;;;;;;5033243;28;20249;-62
2022/10/18 04:47:21;;;;;;;13.65;8.88;;;14.60;99.90;;;;;;5033270;28;20183;-61
2022/10/18 04:49:46;;;;;;;13.77;8.25;;;14.60;99.90;;;;;;5032958;28;20197;-62
2022/10/18 04:52:12;;;;;;;15.93;9.80;;;14.60;99.90;;;;;;5033018;28;20175;-62
2022/10/18 04:54:38;;;;;;;15.52;10.60;;;14.50;99.90;;;;;;5033310;28;20171;-62
2022/10/18 04:57:03;;;;;;;13.05;8.55;;;14.50;99.90;;;;;;5033196;28;20199;-62
2022/10/18 04:59:29;;;;;;;12.77;8.38;;;14.50;99.90;;;;;;5032988;28;20210;-62
2022/10/18 05:01:55;;;;;;;13.45;8.88;;;14.50;99.90;;;;;;5033286;28;20183;-61
2022/10/18 05:04:21;;;;;;;10.90;8.05;;;14.60;99.90;;;;;;5033311;28;20199;-62
2022/10/18 05:06:47;;;;;;;13.30;8.98;;;14.60;99.90;;;;;;5032953;28;20175;-66
2022/10/18 05:09:13;;;;;;;12.80;9.00;;;14.60;99.90;;;;;;5031813;28;20211;-66
2022/10/18 05:11:39;;;;;;;14.60;10.05;;;14.60;99.90;;;;;;5031748;28;20674;-66
2022/10/18 05:14:04;;;;;;;11.73;8.43;;;14.60;99.90;;;;;;5032862;28;20203;-66
2022/10/18 05:16:31;;;;;;;12.75;8.68;;;14.60;99.90;;;;;;5032846;28;20175;-66
2022/10/18 05:18:57;;;;;;;13.43;8.55;;;14.60;99.90;;;;;;5032860;28;20213;-66
2022/10/18 05:21:23;;;;;;;15.55;9.95;;;14.60;99.90;;;;;;5031497;28;20206;-66
2022/10/18 05:23:48;;;;;;;14.95;9.20;;;14.60;99.90;;;;;;5032804;28;20195;-66
2022/10/18 05:26:14;;;;;;;14.65;8.88;;;14.50;99.90;;;;;;5032868;28;20175;-66
2022/10/18 05:28:40;;;;;;;13.68;8.65;;;14.50;99.90;;;;;;5032784;28;20202;-66
2022/10/18 05:31:08;;;;;;;13.20;8.43;;;14.60;99.90;;;;;;5033088;28;20186;-67
2022/10/18 05:33:34;;;;;;;12.35;8.32;;;14.60;99.90;;;;;;5032744;28;20191;-66
2022/10/18 05:36:00;;;;;;;14.27;9.55;;;14.60;99.90;;;;;;5032648;28;20175;-66
2022/10/18 05:38:26;;;;;;;13.32;8.85;;;14.60;99.90;;;;;;5031383;28;20698;-66
2022/10/18 05:40:51;;;;;;;14.43;9.38;;;14.70;99.90;;;;;;5032984;28;20171;-66
2022/10/18 05:43:17;;;;;;;17.05;10.18;;;14.70;99.90;;;;;;5032712;28;20187;-67
2022/10/18 05:45:52;;;;;;;14.07;10.05;;;14.70;99.90;;;;;;5032683;28;20178;-66
2022/10/18 05:48:17;;;;;;;15.63;9.93;;;14.70;99.90;;;;;;5033523;28;20194;-66
2022/10/18 05:50:44;;;;;;;15.30;9.15;;;14.70;99.90;;;;;;5036228;28;20198;-67
2022/10/18 05:53:10;;;;;;;14.30;8.45;;;14.60;99.90;;;;;;5036215;28;20198;-67
2022/10/18 05:55:36;;;;;;;11.18;7.80;;;14.70;99.90;;;;;;5036320;28;20199;-67
2022/10/18 05:58:02;;;;;;;18.92;9.13;;;14.70;99.90;;;;;;5034876;28;20206;-67
2022/10/18 06:00:29;;;;;;;15.13;9.05;;;14.60;99.90;;;;;;5036232;28;20194;-67
2022/10/18 06:02:54;;;;;;;18.23;9.85;;;14.60;99.90;;;;;;5036066;28;20198;-67
2022/10/18 06:05:20;;;;;;;15.52;9.82;;;14.50;99.90;;;;;;5034633;28;20168;-67
2022/10/18 06:07:46;;;;;;;14.50;9.13;;;14.50;99.90;;;;;;5036018;28;20262;-67
2022/10/18 06:10:12;;;;;;;15.90;8.90;;;14.50;99.90;;;;;;5036438;28;20178;-66
2022/10/18 06:12:37;;;;;;;17.38;9.52;;;14.60;99.90;;;;;;5034450;28;20199;-66
2022/10/18 06:15:04;;;;;;;10.65;7.45;;;14.60;99.90;;;;;;5035718;28;20167;-67
2022/10/18 06:17:30;;;;;;;16.58;9.75;;;14.60;99.90;;;;;;5035588;28;20210;-66
2022/10/18 06:19:55;;;;;;;17.42;9.80;;;14.60;99.90;;;;;;5034263;28;20175;-66
2022/10/18 06:22:21;;;;;;;19.63;10.60;;;14.50;99.90;;;;;;5035550;28;20176;-67
2022/10/18 06:24:47;;;;;;;18.70;10.23;;;14.50;99.90;;;;;;5035676;28;20171;-67
2022/10/18 06:27:12;;;;;;;13.77;9.05;;;14.40;99.90;;;;;;5035606;28;20210;-67
2022/10/18 06:29:39;;;;;;;19.67;9.55;;;14.50;99.90;;;;;;5035777;28;20168;-67
2022/10/18 06:32:06;;;;;;;16.70;9.82;;;14.50;99.90;;;;;;5035547;28;20179;-67
2022/10/18 06:34:33;;;;;;;21.40;10.02;;;14.50;99.90;;;;;;5035381;28;20203;-66
2022/10/18 06:36:59;;;;;;;16.65;9.75;;;14.50;99.90;;;;;;5035225;28;20238;-67
2022/10/18 06:39:25;;;;;;;19.13;10.43;;;14.50;99.90;;;;;;5035771;28;20183;-68
2022/10/18 06:41:51;;;;;;;18.83;9.85;;;14.50;99.90;;;;;;5033919;28;20199;-67
2022/10/18 06:44:17;;;;;;;16.52;9.65;;;14.60;99.90;;;;;;5035479;28;20698;-67
2022/10/18 06:46:44;;;;;;;20.25;9.40;;;14.60;99.90;;;;;;5035211;28;20168;-67
2022/10/18 06:49:10;;;;;;;19.20;10.13;;;14.60;99.90;;;;;;5035107;28;20175;-67
2022/10/18 06:51:36;;;;;;;14.40;8.00;;;14.60;99.90;;;;;;5034968;28;20254;-66
2022/10/18 06:54:03;;;;;;;19.17;11.23;;;14.60;99.90;;;;;;5034992;28;20198;-66
2022/10/18 06:56:29;;;;;;;22.92;11.07;;;14.60;99.90;;;;;;5035140;28;20174;-67
2022/10/18 06:58:55;;;;;;;23.05;11.60;;;14.60;99.90;;;;;;5034024;28;20194;-67
2022/10/18 07:01:20;;;;;;;19.55;10.52;;;14.60;99.90;;;;;;5035133;28;20634;-67
2022/10/18 07:03:48;;;;;;;18.10;10.95;;;14.60;99.90;;;;;;5034751;28;20701;-67
2022/10/18 07:06:16;;;;;;;20.42;10.68;;;14.60;99.90;;;;;;5034651;28;20309;-67
2022/10/18 07:08:43;;;;;;;21.20;10.65;;;14.60;99.90;;;;;;5034750;28;20171;-67
2022/10/18 07:11:17;;;;;;;30.50;11.93;;;14.60;99.90;;;;;;5035004;28;20171;-67
2022/10/18 07:13:44;;;;;;;21.75;11.27;;;14.60;99.90;;;;;;5033311;28;20202;-67
2022/10/18 07:16:15;;;;;;;19.50;10.48;;;14.60;99.90;;;;;;5034638;28;20262;-67
2022/10/18 07:18:43;;;;;;;27.02;12.93;;;14.70;99.90;;;;;;5034545;28;20214;-66
2022/10/18 07:21:11;;;;;;;23.25;10.68;;;14.80;99.90;;;;;;5034412;28;20191;-67
2022/10/18 07:23:40;;;;;;;27.05;11.55;;;14.70;99.90;;;;;;5034670;28;20222;-66
2022/10/18 07:26:17;;;;;;;21.05;10.57;;;14.70;99.90;;;;;;5034544;28;20590;-67
2022/10/18 07:28:45;;;;;;;24.00;12.18;;;14.70;99.90;;;;;;5034276;28;20191;-66
2022/10/18 07:31:11;;;;;;;28.58;12.43;;;14.60;99.90;;;;;;5033210;28;20212;-66
2022/10/18 07:33:37;;;;;;;25.10;11.77;;;14.60;99.90;;;;;;5034373;28;20777;-67
2022/10/18 07:36:05;;;;;;;20.73;10.43;;;14.60;99.90;;;;;;5034106;28;20214;-66
2022/10/18 07:38:31;;;;;;;27.50;12.50;;;14.60;99.90;;;;;;5034137;28;20217;-66
2022/10/18 07:40:57;;;;;;;24.33;10.93;;;14.60;99.90;;;;;;5034118;28;20182;-67
2022/10/18 07:43:23;;;;;;;30.98;12.82;;;14.70;99.90;;;;;;5034328;28;20546;-66
2022/10/18 07:45:54;;;;;;;25.05;12.10;;;14.70;99.90;;;;;;5034338;28;20228;-66
2022/10/18 07:48:20;;;;;;;25.58;12.85;;;14.70;99.90;;;;;;5032734;28;20194;-67
2022/10/18 07:50:45;;;;;;;27.98;12.68;;;14.80;99.90;;;;;;5034285;28;20175;-66
2022/10/18 07:53:11;;;;;;;26.70;11.90;;;14.80;99.90;;;;;;5032686;28;20210;-66
2022/10/18 07:55:37;;;;;;;28.48;12.98;;;14.80;99.90;;;;;;5034180;28;20175;-66
2022/10/18 07:58:03;;;;;;;28.52;13.00;;;14.80;99.90;;;;;;5033991;28;20203;-66
2022/10/18 08:00:28;;;;;;;43.17;15.43;;;14.90;99.90;;;;;;5034100;28;20229;-66
2022/10/18 08:02:58;;;;;;;40.63;15.55;;;14.80;99.90;;;;;;5034079;28;20543;-66
2022/10/18 08:05:25;;;;;;;43.72;15.13;;;14.90;99.90;;;;;;5033749;28;20259;-66
2022/10/18 08:07:52;;;;;;;38.55;15.80;;;14.80;99.90;;;;;;5033701;28;20199;-66
2022/10/18 08:10:18;;;;;;;41.83;16.65;;;14.80;99.90;;;;;;5033654;28;20179;-66
2022/10/18 08:12:44;;;;;;;38.78;15.25;;;14.80;99.90;;;;;;5033632;28;20195;-66
2022/10/18 08:15:10;;;;;;;45.42;15.70;;;14.80;99.90;;;;;;5033634;28;20182;-66
2022/10/18 08:17:36;;;;;;;45.40;18.52;;;14.90;99.90;;;;;;5033490;28;20285;-66
2022/10/18 08:20:01;;;;;;;49.60;19.05;;;14.90;99.90;;;;;;5033841;28;20246;-63
2022/10/18 08:22:27;;;;;;;58.55;18.77;;;14.90;99.90;;;;;;5033787;28;20225;-66
2022/10/18 08:24:53;;;;;;;59.38;19.02;;;14.80;99.90;;;;;;5033793;28;20209;-66
2022/10/18 08:27:19;;;;;;;56.28;19.85;;;14.90;99.90;;;;;;5033401;28;20171;-66
2022/10/18 08:29:44;;;;;;;70.10;22.05;;;15.00;99.90;;;;;;5033715;28;20639;-66
2022/10/18 08:32:10;;;;;;;91.05;25.00;;;15.00;99.90;;;;;;5033659;28;20210;-66
2022/10/18 08:34:36;;;;;;;80.88;27.58;;;15.00;99.90;;;;;;5033324;28;20203;-67
2022/10/18 08:37:02;;;;;;;71.38;24.48;;;15.00;99.90;;;;;;5033163;28;20203;-66
2022/10/18 08:39:28;;;;;;;78.38;25.52;;;15.00;99.90;;;;;;5033722;28;20250;-67
2022/10/18 08:41:59;;;;;;;79.55;26.58;;;15.00;99.90;;;;;;5032172;28;20171;-66
2022/10/18 08:44:30;;;;;;;83.20;26.80;;;15.00;99.90;;;;;;5033247;28;20191;-66
2022/10/18 08:47:02;;;;;;;90.45;28.85;;;15.00;99.90;;;;;;5033426;28;20164;-67
2022/10/18 08:49:57;;;;;;;79.35;27.90;;;15.10;99.90;;;;;;5033254;28;20643;-66
2022/10/18 08:52:31;;;;;;;97.60;28.88;;;15.10;99.90;;;;;;5030801;28;20198;-67
2022/10/18 08:55:15;;;;;;;72.60;27.95;;;15.00;99.90;;;;;;5033475;28;20170;-66
2022/10/18 08:57:42;;;;;;;84.38;30.27;;;15.10;99.90;;;;;;5033088;28;20344;-66
2022/10/18 09:00:15;;;;;;;81.55;29.33;;;15.10;99.90;;;;;;5033121;28;20574;-67
2022/10/18 09:02:59;;;;;;;71.10;24.75;;;15.10;99.90;;;;;;5031853;28;20195;-67
2022/10/18 09:05:39;;;;;;;64.28;24.05;;;15.20;99.90;;;;;;5033252;28;20163;-66
2022/10/18 09:08:25;;;;;;;70.22;23.55;;;15.20;99.90;;;;;;5031822;28;20171;-67
2022/10/18 09:11:11;;;;;;;85.50;28.42;;;15.20;99.90;;;;;;5033131;28;20171;-67
2022/10/18 09:13:55;;;;;;;82.03;28.95;;;15.10;99.90;;;;;;5033193;28;20328;-66
2022/10/18 09:16:52;;;;;;;64.38;24.88;;;15.10;99.90;;;;;;5032947;28;20199;-67
2022/10/18 09:19:53;;;;;;;123.32;39.67;;;15.10;99.90;;;;;;5010660;28;20196;-66
2022/10/18 09:22:23;;;;;;;142.32;45.72;;;15.20;99.90;;;;;;5012555;28;20211;-67
2022/10/18 09:25:16;;;;;;;144.23;46.67;;;15.20;99.90;;;;;;5017047;28;20196;-67
2022/10/18 09:27:55;;;;;;;145.50;47.10;;;15.10;99.90;;;;;;5016989;28;20187;-67
2022/10/18 09:30:30;;;;;;;163.48;52.35;;;15.20;99.90;;;;;;5016910;28;20655;-67
2022/10/18 09:33:12;;;;;;;172.93;52.65;;;15.30;99.90;;;;;;5015565;28;20199;-66
2022/10/18 09:35:55;;;;;;;161.90;51.60;;;15.30;99.90;;;;;;5021507;28;20183;-67
2022/10/18 09:38:26;;;;;;;180.98;55.60;;;15.30;99.90;;;;;;5033053;28;20280;-67
2022/10/18 09:41:06;;;;;;;174.73;57.78;;;15.30;99.90;;;;;;5036858;28;20678;-67
2022/10/18 09:43:59;;;;;;;161.10;54.60;;;15.30;99.90;;;;;;5036423;28;20191;-67
2022/10/18 09:46:31;;;;;;;173.48;58.70;;;15.30;99.90;;;;;;5036419;28;20156;-67
2022/10/18 09:49:10;;;;;;;182.05;58.53;;;15.30;99.90;;;;;;5035004;28;20185;-67
2022/10/18 09:51:38;;;;;;;150.25;55.72;;;15.20;99.90;;;;;;5034912;28;20173;-67
2022/10/18 09:54:25;;;;;;;163.57;54.35;;;15.20;99.90;;;;;;5036125;28;20245;-67
2022/10/18 09:57:05;;;;;;;139.43;49.17;;;15.20;99.90;;;;;;5036116;28;20206;-67
2022/10/18 09:59:41;;;;;;;171.80;54.28;;;15.30;99.90;;;;;;5036429;28;20247;-67
2022/10/18 10:02:15;;;;;;;162.27;55.60;;;15.40;99.90;;;;;;5036340;28;20162;-67
2022/10/18 10:04:42;;;;;;;139.50;50.22;;;15.50;99.90;;;;;;5036156;28;20158;-67
2022/10/18 10:07:12;;;;;;;157.38;54.22;;;15.50;99.90;;;;;;5034602;28;20186;-67
2022/10/18 10:09:44;;;;;;;159.95;53.88;;;15.50;99.90;;;;;;5035879;28;20213;-67
2022/10/18 10:12:26;;;;;;;159.50;53.08;;;15.40;99.90;;;;;;5034671;28;20164;-67
2022/10/18 10:14:52;;;;;;;147.90;52.13;;;15.40;99.90;;;;;;5035864;28;20675;-67
2022/10/18 10:17:28;;;;;;;139.07;54.40;;;15.40;99.90;;;;;;5036199;28;20203;-67
2022/10/18 10:20:12;;;;;;;143.85;53.25;;;15.40;99.90;;;;;;5035724;28;20565;-67
2022/10/18 10:22:40;;;;;;;129.32;48.92;;;15.40;99.90;;;;;;5035910;28;20196;-68
2022/10/18 10:25:17;;;;;;;134.10;50.92;;;15.40;99.90;;;;;;5034423;28;20175;-68
2022/10/18 10:27:44;;;;;;;107.72;42.78;;;15.40;99.90;;;;;;5035472;28;20213;-67
2022/10/18 10:30:24;;;;;;;96.95;40.00;;;15.40;99.90;;;;;;5035582;28;20183;-70
2022/10/18 10:32:51;;;;;;;88.70;38.70;;;15.50;99.90;;;;;;5035636;28;20591;-72
2022/10/18 10:35:28;;;;;;;85.95;35.28;;;15.40;99.90;;;;;;5035645;28;20229;-71
2022/10/18 10:37:55;;;;;;;81.70;37.67;;;15.40;99.90;;;;;;5035645;28;20187;-72
2022/10/18 10:40:23;;;;;;;89.88;39.65;;;15.40;99.90;;;;;;5034420;28;20187;-70
2022/10/18 10:42:57;;;;;;;83.78;37.25;;;15.40;99.90;;;;;;5035911;28;20635;-71
2022/10/18 10:45:27;;;;;;;86.13;38.28;;;15.50;99.90;;;;;;5034278;28;20178;-70
2022/10/18 10:48:00;;;;;;;85.68;38.22;;;15.50;99.90;;;;;;5035333;28;20551;-70
2022/10/18 10:50:28;;;;;;;83.63;38.88;;;15.50;99.90;;;;;;5033804;28;20175;-70
2022/10/18 10:52:54;;;;;;;89.03;38.72;;;15.50;99.90;;;;;;5035170;28;20206;-70
2022/10/18 10:55:27;;;;;;;89.85;41.22;;;15.50;99.90;;;;;;5035032;28;20186;-70
2022/10/18 10:57:54;;;;;;;91.25;41.75;;;15.50;99.90;;;;;;5035196;28;20191;-70
2022/10/18 11:00:43;;;;;;;94.72;42.95;;;15.50;99.90;;;;;;5034915;28;20168;-70
2022/10/18 11:03:18;;;;;;;99.50;41.95;;;15.50;99.90;;;;;;5033703;28;20201;-71
2022/10/18 11:05:51;;;;;;;93.63;41.88;;;15.50;99.90;;;;;;5033616;28;20175;-67
2022/10/18 11:08:22;;;;;;;78.47;37.90;;;15.50;99.90;;;;;;5035127;28;20179;-67
2022/10/18 11:11:12;;;;;;;80.72;39.65;;;15.60;99.90;;;;;;5034582;28;20221;-67
2022/10/18 11:14:09;;;;;;;76.07;38.25;;;15.70;99.90;;;;;;5034653;28;20718;-68
2022/10/18 11:16:48;;;;;;;79.00;39.00;;;15.80;99.90;;;;;;5011279;28;20559;-68
2022/10/18 11:19:31;;;;;;;77.47;37.28;;;15.90;99.90;;;;;;5033300;28;20183;-68
2022/10/18 11:21:58;;;;;;;73.72;35.80;;;16.00;99.90;;;;;;5034315;28;20161;-68
2022/10/18 11:24:24;;;;;;;79.05;38.22;;;16.20;99.90;;;;;;5034230;28;20198;-68
2022/10/18 11:27:06;;;;;;;76.78;38.05;;;16.30;99.90;;;;;;5033046;28;20174;-68
2022/10/18 11:29:38;;;;;;;66.68;36.42;;;16.30;99.90;;;;;;5034921;28;20509;-67
2022/10/18 11:32:17;;;;;;;62.05;33.88;;;16.20;99.90;;;;;;5034343;28;20310;-68
2022/10/18 11:34:58;;;;;;;66.55;34.88;;;16.10;99.90;;;;;;5034404;28;20562;-67
2022/10/18 11:37:36;;;;;;;63.08;33.28;;;16.20;99.90;;;;;;5032821;28;20544;-68
2022/10/18 11:40:17;;;;;;;59.25;32.22;;;16.20;99.90;;;;;;5034280;28;20163;-67
2022/10/18 11:42:55;;;;;;;54.47;32.00;;;16.30;99.90;;;;;;5034375;28;20698;-67
2022/10/18 11:45:40;;;;;;;59.50;34.55;;;16.30;99.90;;;;;;5032329;28;20546;-67
2022/10/18 11:48:21;;;;;;;53.25;31.02;;;16.30;99.90;;;;;;5034040;28;20186;-67
2022/10/18 11:51:18;;;;;;;52.75;32.90;;;16.30;99.90;;;;;;5033898;28;20166;-67
2022/10/18 11:54:02;;;;;;;47.83;29.52;;;16.40;99.90;;;;;;5032633;28;20257;-67
2022/10/18 11:56:50;;;;;;;52.88;31.90;;;16.40;99.90;;;;;;5032530;28;20278;-67
2022/10/18 11:59:28;;;;;;;47.22;29.92;;;16.50;99.90;;;;;;5034178;28;20163;-67
2022/10/18 12:02:22;;;;;;;43.40;27.05;;;16.60;99.90;;;;;;5033917;28;20155;-67
2022/10/18 12:04:53;;;;;;;41.70;26.75;;;16.80;99.90;;;;;;5034138;28;20550;-66
2022/10/18 12:07:21;;;;;;;42.38;27.25;;;16.90;99.90;;;;;;5033663;28;20167;-67
2022/10/18 12:09:50;;;;;;;39.45;27.48;;;17.10;99.90;;;;;;5032460;28;20215;-67
2022/10/18 12:12:20;;;;;;;39.30;25.95;;;17.20;99.90;;;;;;5034147;28;20172;-67
2022/10/18 12:15:17;;;;;;;40.67;26.08;;;17.40;99.90;;;;;;5033781;28;20167;-67
2022/10/18 12:18:09;;;;;;;39.90;27.77;;;17.50;99.90;;;;;;5031106;28;20225;-66
2022/10/18 12:20:48;;;;;;;33.20;25.27;;;17.80;99.90;;;;;;5033730;28;20648;-67
2022/10/18 12:23:30;;;;;;;33.40;24.08;;;18.10;99.90;;;;;;5033515;28;20226;-67
2022/10/18 12:26:01;;;;;;;35.67;24.45;;;18.40;99.90;;;;;;5034122;28;20155;-67
2022/10/18 12:28:53;;;;;;;37.70;26.50;;;18.60;99.90;;;;;;5033386;28;20195;-67
2022/10/18 12:31:25;;;;;;;35.80;25.02;;;18.70;99.90;;;;;;5033618;28;20171;-67
2022/10/18 12:33:59;;;;;;;42.15;26.55;;;18.60;99.90;;;;;;5033287;28;20565;-67
2022/10/18 12:36:53;;;;;;;35.33;24.38;;;18.60;99.90;;;;;;5032088;28;20542;-67
2022/10/18 12:39:27;;;;;;;36.28;23.30;;;18.80;99.90;;;;;;5034020;28;20156;-67
2022/10/18 12:41:55;;;;;;;29.58;21.13;;;19.00;99.90;;;;;;5033623;28;20166;-67
2022/10/18 12:44:29;;;;;;;25.67;18.92;;;18.80;99.90;;;;;;5032100;28;20195;-67
2022/10/18 12:46:58;;;;;;;27.58;18.98;;;18.70;99.90;;;;;;5033225;28;20187;-66
2022/10/18 12:49:29;;;;;;;26.75;18.65;;;18.80;99.90;;;;;;5033540;28;20644;-67